sensor_id;sensor_type;location;lat;lon;timestamp;P1;durP1;ratioP1;P2;durP2;ratioP2
56511;SDS011;42408;53.238;5.686;2023-05-03T00:02:08;7.27;;;3.27;;
56511;SDS011;42408;53.238;5.686;2023-05-03T00:04:35;6.17;;;3.27;;
56511;SDS011;42408;53.238;5.686;2023-05-03T00:07:01;12.07;;;3.85;;
56511;SDS011;42408;53.238;5.686;2023-05-03T00:09:28;6.25;;;3.28;;
56511;SDS011;42408;53.238;5.686;2023-05-03T00:11:53;7.50;;;3.60;;
56511;SDS011;42408;53.238;5.686;2023-05-03T00:14:19;6.67;;;3.57;;
56511;SDS011;42408;53.238;5.686;2023-05-03T00:16:45;9.33;;;3.27;;
56511;SDS011;42408;53.238;5.686;2023-05-03T00:19:11;7.87;;;3.47;;
56511;SDS011;42408;53.238;5.686;2023-05-03T00:21:36;20.13;;;4.60;;
56511;SDS011;42408;53.238;5.686;2023-05-03T00:24:02;8.40;;;3.13;;
56511;SDS011;42408;53.238;5.686;2023-05-03T00:26:28;7.80;;;3.20;;
56511;SDS011;42408;53.238;5.686;2023-05-03T00:28:53;5.43;;;3.20;;
56511;SDS011;42408;53.238;5.686;2023-05-03T00:31:19;8.13;;;3.67;;
56511;SDS011;42408;53.238;5.686;2023-05-03T00:33:45;5.97;;;3.30;;
56511;SDS011;42408;53.238;5.686;2023-05-03T00:36:11;6.80;;;3.30;;
56511;SDS011;42408;53.238;5.686;2023-05-03T00:38:38;6.18;;;3.55;;
56511;SDS011;42408;53.238;5.686;2023-05-03T00:41:05;6.57;;;3.28;;
56511;SDS011;42408;53.238;5.686;2023-05-03T00:43:34;5.32;;;3.20;;
56511;SDS011;42408;53.238;5.686;2023-05-03T00:46:01;5.75;;;3.35;;
56511;SDS011;42408;53.238;5.686;2023-05-03T00:48:29;5.38;;;3.38;;
56511;SDS011;42408;53.238;5.686;2023-05-03T00:50:55;8.50;;;2.90;;
56511;SDS011;42408;53.238;5.686;2023-05-03T00:53:23;6.30;;;3.25;;
56511;SDS011;42408;53.238;5.686;2023-05-03T00:55:51;7.50;;;3.53;;
56511;SDS011;42408;53.238;5.686;2023-05-03T00:58:17;6.45;;;3.65;;
56511;SDS011;42408;53.238;5.686;2023-05-03T01:00:43;4.75;;;3.20;;
56511;SDS011;42408;53.238;5.686;2023-05-03T01:03:09;7.33;;;3.57;;
56511;SDS011;42408;53.238;5.686;2023-05-03T01:05:39;9.93;;;3.75;;
56511;SDS011;42408;53.238;5.686;2023-05-03T01:08:39;5.65;;;3.15;;
56511;SDS011;42408;53.238;5.686;2023-05-03T01:11:21;5.13;;;3.35;;
56511;SDS011;42408;53.238;5.686;2023-05-03T01:16:34;6.63;;;3.35;;
56511;SDS011;42408;53.238;5.686;2023-05-03T01:19:06;5.47;;;3.35;;
56511;SDS011;42408;53.238;5.686;2023-05-03T01:21:45;7.35;;;3.75;;
56511;SDS011;42408;53.238;5.686;2023-05-03T01:24:17;6.13;;;3.60;;
56511;SDS011;42408;53.238;5.686;2023-05-03T01:26:46;8.45;;;4.57;;
56511;SDS011;42408;53.238;5.686;2023-05-03T01:29:11;5.90;;;3.33;;
56511;SDS011;42408;53.238;5.686;2023-05-03T01:31:38;6.63;;;3.37;;
56511;SDS011;42408;53.238;5.686;2023-05-03T01:34:16;5.22;;;2.83;;
56511;SDS011;42408;53.238;5.686;2023-05-03T01:36:43;5.32;;;3.10;;
56511;SDS011;42408;53.238;5.686;2023-05-03T01:39:17;5.03;;;2.85;;
56511;SDS011;42408;53.238;5.686;2023-05-03T01:41:48;7.10;;;2.58;;
56511;SDS011;42408;53.238;5.686;2023-05-03T01:44:15;5.95;;;2.50;;
56511;SDS011;42408;53.238;5.686;2023-05-03T01:46:42;2.80;;;2.17;;
56511;SDS011;42408;53.238;5.686;2023-05-03T01:51:34;5.75;;;2.22;;
56511;SDS011;42408;53.238;5.686;2023-05-03T01:54:00;5.40;;;2.47;;
56511;SDS011;42408;53.238;5.686;2023-05-03T01:56:25;3.23;;;2.10;;
56511;SDS011;42408;53.238;5.686;2023-05-03T01:58:51;4.40;;;2.37;;
56511;SDS011;42408;53.238;5.686;2023-05-03T02:01:17;5.63;;;2.50;;
56511;SDS011;42408;53.238;5.686;2023-05-03T02:03:43;4.80;;;2.30;;
56511;SDS011;42408;53.238;5.686;2023-05-03T02:06:08;7.77;;;3.33;;
56511;SDS011;42408;53.238;5.686;2023-05-03T02:08:34;4.83;;;2.30;;
56511;SDS011;42408;53.238;5.686;2023-05-03T02:11:00;4.77;;;2.20;;
56511;SDS011;42408;53.238;5.686;2023-05-03T02:13:26;5.13;;;2.87;;
56511;SDS011;42408;53.238;5.686;2023-05-03T02:15:51;5.27;;;2.60;;
56511;SDS011;42408;53.238;5.686;2023-05-03T02:18:17;5.87;;;2.30;;
56511;SDS011;42408;53.238;5.686;2023-05-03T02:20:44;6.75;;;3.03;;
56511;SDS011;42408;53.238;5.686;2023-05-03T02:23:10;6.13;;;2.45;;
56511;SDS011;42408;53.238;5.686;2023-05-03T02:25:36;4.30;;;2.57;;
56511;SDS011;42408;53.238;5.686;2023-05-03T02:28:02;4.53;;;2.47;;
56511;SDS011;42408;53.238;5.686;2023-05-03T02:30:27;5.80;;;2.60;;
56511;SDS011;42408;53.238;5.686;2023-05-03T02:32:53;5.57;;;2.60;;
56511;SDS011;42408;53.238;5.686;2023-05-03T02:35:19;6.80;;;2.70;;
56511;SDS011;42408;53.238;5.686;2023-05-03T02:37:45;5.53;;;2.77;;
56511;SDS011;42408;53.238;5.686;2023-05-03T02:40:10;5.80;;;3.07;;
56511;SDS011;42408;53.238;5.686;2023-05-03T02:42:36;8.33;;;2.80;;
56511;SDS011;42408;53.238;5.686;2023-05-03T02:45:02;5.37;;;3.07;;
56511;SDS011;42408;53.238;5.686;2023-05-03T02:47:28;5.00;;;2.90;;
56511;SDS011;42408;53.238;5.686;2023-05-03T02:49:54;7.70;;;2.93;;
56511;SDS011;42408;53.238;5.686;2023-05-03T02:52:20;5.23;;;3.27;;
56511;SDS011;42408;53.238;5.686;2023-05-03T02:54:45;9.03;;;3.03;;
56511;SDS011;42408;53.238;5.686;2023-05-03T02:57:13;6.18;;;2.90;;
56511;SDS011;42408;53.238;5.686;2023-05-03T02:59:39;4.72;;;3.33;;
56511;SDS011;42408;53.238;5.686;2023-05-03T03:02:05;6.60;;;3.43;;
56511;SDS011;42408;53.238;5.686;2023-05-03T03:04:31;5.17;;;3.43;;
56511;SDS011;42408;53.238;5.686;2023-05-03T03:06:56;8.37;;;3.63;;
56511;SDS011;42408;53.238;5.686;2023-05-03T03:09:22;6.87;;;3.73;;
56511;SDS011;42408;53.238;5.686;2023-05-03T03:11:49;5.40;;;3.37;;
56511;SDS011;42408;53.238;5.686;2023-05-03T03:14:16;4.88;;;3.08;;
56511;SDS011;42408;53.238;5.686;2023-05-03T03:16:41;6.80;;;3.27;;
56511;SDS011;42408;53.238;5.686;2023-05-03T03:19:09;9.15;;;3.70;;
56511;SDS011;42408;53.238;5.686;2023-05-03T03:21:34;6.90;;;3.50;;
56511;SDS011;42408;53.238;5.686;2023-05-03T03:24:01;6.07;;;3.45;;
56511;SDS011;42408;53.238;5.686;2023-05-03T03:26:30;7.70;;;4.68;;
56511;SDS011;42408;53.238;5.686;2023-05-03T03:28:56;8.00;;;4.23;;
56511;SDS011;42408;53.238;5.686;2023-05-03T03:31:21;7.83;;;3.60;;
56511;SDS011;42408;53.238;5.686;2023-05-03T03:33:49;6.70;;;3.40;;
56511;SDS011;42408;53.238;5.686;2023-05-03T03:36:15;8.67;;;3.40;;
56511;SDS011;42408;53.238;5.686;2023-05-03T03:38:41;5.90;;;3.47;;
56511;SDS011;42408;53.238;5.686;2023-05-03T03:41:06;8.20;;;3.30;;
56511;SDS011;42408;53.238;5.686;2023-05-03T03:43:32;5.63;;;3.30;;
56511;SDS011;42408;53.238;5.686;2023-05-03T03:45:58;5.30;;;3.07;;
56511;SDS011;42408;53.238;5.686;2023-05-03T03:48:24;6.17;;;3.83;;
56511;SDS011;42408;53.238;5.686;2023-05-03T03:50:49;6.37;;;3.60;;
56511;SDS011;42408;53.238;5.686;2023-05-03T03:53:15;9.33;;;3.23;;
56511;SDS011;42408;53.238;5.686;2023-05-03T03:55:41;4.43;;;3.17;;
56511;SDS011;42408;53.238;5.686;2023-05-03T03:58:07;9.40;;;3.30;;
56511;SDS011;42408;53.238;5.686;2023-05-03T04:00:33;7.43;;;3.23;;
56511;SDS011;42408;53.238;5.686;2023-05-03T04:03:03;4.78;;;3.03;;
56511;SDS011;42408;53.238;5.686;2023-05-03T04:05:30;8.95;;;3.42;;
56511;SDS011;42408;53.238;5.686;2023-05-03T04:07:56;7.97;;;3.43;;
56511;SDS011;42408;53.238;5.686;2023-05-03T04:10:21;5.27;;;3.10;;
56511;SDS011;42408;53.238;5.686;2023-05-03T04:12:47;6.07;;;3.37;;
56511;SDS011;42408;53.238;5.686;2023-05-03T04:15:13;7.13;;;3.47;;
56511;SDS011;42408;53.238;5.686;2023-05-03T04:17:39;7.37;;;3.23;;
56511;SDS011;42408;53.238;5.686;2023-05-03T04:20:05;5.17;;;3.17;;
56511;SDS011;42408;53.238;5.686;2023-05-03T04:22:34;6.28;;;3.17;;
56511;SDS011;42408;53.238;5.686;2023-05-03T04:25:01;5.25;;;3.03;;
56511;SDS011;42408;53.238;5.686;2023-05-03T04:27:26;9.87;;;3.30;;
56511;SDS011;42408;53.238;5.686;2023-05-03T04:29:52;6.93;;;3.20;;
56511;SDS011;42408;53.238;5.686;2023-05-03T04:32:18;6.63;;;2.77;;
56511;SDS011;42408;53.238;5.686;2023-05-03T04:34:48;4.40;;;2.90;;
56511;SDS011;42408;53.238;5.686;2023-05-03T04:37:16;5.57;;;2.88;;
56511;SDS011;42408;53.238;5.686;2023-05-03T04:39:43;7.43;;;3.63;;
56511;SDS011;42408;53.238;5.686;2023-05-03T04:42:10;6.18;;;3.35;;
56511;SDS011;42408;53.238;5.686;2023-05-03T04:44:43;5.20;;;3.03;;
56511;SDS011;42408;53.238;5.686;2023-05-03T04:47:09;6.68;;;3.17;;
56511;SDS011;42408;53.238;5.686;2023-05-03T04:49:34;8.23;;;3.40;;
56511;SDS011;42408;53.238;5.686;2023-05-03T04:52:00;7.30;;;3.10;;
56511;SDS011;42408;53.238;5.686;2023-05-03T04:54:26;6.97;;;3.37;;
56511;SDS011;42408;53.238;5.686;2023-05-03T04:56:52;5.07;;;3.10;;
56511;SDS011;42408;53.238;5.686;2023-05-03T04:59:19;6.10;;;2.88;;
56511;SDS011;42408;53.238;5.686;2023-05-03T05:01:45;6.90;;;2.93;;
56511;SDS011;42408;53.238;5.686;2023-05-03T05:04:11;5.28;;;2.97;;
56511;SDS011;42408;53.238;5.686;2023-05-03T05:06:36;6.37;;;2.97;;
56511;SDS011;42408;53.238;5.686;2023-05-03T05:09:05;9.17;;;3.27;;
56511;SDS011;42408;53.238;5.686;2023-05-03T05:11:31;7.50;;;3.25;;
56511;SDS011;42408;53.238;5.686;2023-05-03T05:13:57;6.15;;;2.75;;
56511;SDS011;42408;53.238;5.686;2023-05-03T05:16:23;6.97;;;3.23;;
56511;SDS011;42408;53.238;5.686;2023-05-03T05:18:49;4.90;;;2.63;;
56511;SDS011;42408;53.238;5.686;2023-05-03T05:21:14;3.93;;;2.20;;
56511;SDS011;42408;53.238;5.686;2023-05-03T05:23:40;4.30;;;2.53;;
56511;SDS011;42408;53.238;5.686;2023-05-03T05:26:06;6.07;;;2.13;;
56511;SDS011;42408;53.238;5.686;2023-05-03T05:28:31;5.97;;;2.37;;
56511;SDS011;42408;53.238;5.686;2023-05-03T05:30:57;4.37;;;2.30;;
56511;SDS011;42408;53.238;5.686;2023-05-03T05:33:23;4.20;;;2.30;;
56511;SDS011;42408;53.238;5.686;2023-05-03T05:35:49;4.80;;;1.97;;
56511;SDS011;42408;53.238;5.686;2023-05-03T05:38:15;4.93;;;2.37;;
56511;SDS011;42408;53.238;5.686;2023-05-03T05:40:44;5.60;;;2.83;;
56511;SDS011;42408;53.238;5.686;2023-05-03T05:43:09;4.37;;;2.40;;
56511;SDS011;42408;53.238;5.686;2023-05-03T05:45:35;7.37;;;2.30;;
56511;SDS011;42408;53.238;5.686;2023-05-03T05:48:01;4.30;;;1.93;;
56511;SDS011;42408;53.238;5.686;2023-05-03T05:50:26;4.17;;;2.47;;
56511;SDS011;42408;53.238;5.686;2023-05-03T05:52:52;6.10;;;3.70;;
56511;SDS011;42408;53.238;5.686;2023-05-03T05:55:18;5.00;;;2.60;;
56511;SDS011;42408;53.238;5.686;2023-05-03T06:00:11;5.82;;;2.90;;
56511;SDS011;42408;53.238;5.686;2023-05-03T06:02:41;5.30;;;2.90;;
56511;SDS011;42408;53.238;5.686;2023-05-03T06:05:07;4.37;;;2.60;;
56511;SDS011;42408;53.238;5.686;2023-05-03T06:07:33;6.82;;;2.53;;
56511;SDS011;42408;53.238;5.686;2023-05-03T06:09:58;4.47;;;2.40;;
56511;SDS011;42408;53.238;5.686;2023-05-03T06:12:25;3.93;;;2.20;;
56511;SDS011;42408;53.238;5.686;2023-05-03T06:14:51;6.38;;;2.35;;
56511;SDS011;42408;53.238;5.686;2023-05-03T06:17:16;3.23;;;1.80;;
56511;SDS011;42408;53.238;5.686;2023-05-03T06:19:42;4.10;;;2.63;;
56511;SDS011;42408;53.238;5.686;2023-05-03T06:22:08;5.05;;;2.88;;
56511;SDS011;42408;53.238;5.686;2023-05-03T06:24:35;5.15;;;2.20;;
56511;SDS011;42408;53.238;5.686;2023-05-03T06:27:00;6.97;;;3.30;;
56511;SDS011;42408;53.238;5.686;2023-05-03T06:29:26;3.50;;;1.70;;
56511;SDS011;42408;53.238;5.686;2023-05-03T06:31:53;3.60;;;2.00;;
56511;SDS011;42408;53.238;5.686;2023-05-03T06:34:19;3.70;;;2.03;;
56511;SDS011;42408;53.238;5.686;2023-05-03T06:36:46;4.75;;;1.77;;
56511;SDS011;42408;53.238;5.686;2023-05-03T06:39:12;4.40;;;1.80;;
56511;SDS011;42408;53.238;5.686;2023-05-03T06:41:37;5.97;;;2.50;;
56511;SDS011;42408;53.238;5.686;2023-05-03T06:44:03;7.40;;;2.20;;
56511;SDS011;42408;53.238;5.686;2023-05-03T06:48:55;4.78;;;1.80;;
56511;SDS011;42408;53.238;5.686;2023-05-03T06:51:25;4.37;;;1.83;;
56511;SDS011;42408;53.238;5.686;2023-05-03T06:53:53;5.78;;;1.95;;
56511;SDS011;42408;53.238;5.686;2023-05-03T06:56:20;3.88;;;1.80;;
56511;SDS011;42408;53.238;5.686;2023-05-03T06:58:46;4.45;;;2.00;;
56511;SDS011;42408;53.238;5.686;2023-05-03T07:01:12;3.33;;;1.77;;
56511;SDS011;42408;53.238;5.686;2023-05-03T07:03:38;4.50;;;1.75;;
56511;SDS011;42408;53.238;5.686;2023-05-03T07:06:04;4.03;;;1.83;;
56511;SDS011;42408;53.238;5.686;2023-05-03T07:08:29;4.43;;;1.77;;
56511;SDS011;42408;53.238;5.686;2023-05-03T07:10:55;4.03;;;1.97;;
56511;SDS011;42408;53.238;5.686;2023-05-03T07:13:21;6.90;;;2.00;;
56511;SDS011;42408;53.238;5.686;2023-05-03T07:15:47;3.97;;;2.07;;
56511;SDS011;42408;53.238;5.686;2023-05-03T07:18:13;9.83;;;2.33;;
56511;SDS011;42408;53.238;5.686;2023-05-03T07:20:38;5.23;;;1.73;;
56511;SDS011;42408;53.238;5.686;2023-05-03T07:23:04;6.60;;;2.57;;
56511;SDS011;42408;53.238;5.686;2023-05-03T07:25:31;5.68;;;2.13;;
56511;SDS011;42408;53.238;5.686;2023-05-03T07:27:57;3.50;;;1.63;;
56511;SDS011;42408;53.238;5.686;2023-05-03T07:30:23;3.93;;;1.80;;
56511;SDS011;42408;53.238;5.686;2023-05-03T07:32:49;5.97;;;1.93;;
56511;SDS011;42408;53.238;5.686;2023-05-03T07:35:15;3.70;;;2.10;;
56511;SDS011;42408;53.238;5.686;2023-05-03T07:37:41;2.83;;;1.63;;
56511;SDS011;42408;53.238;5.686;2023-05-03T07:40:07;5.88;;;1.90;;
56511;SDS011;42408;53.238;5.686;2023-05-03T07:45:00;6.55;;;2.17;;
56511;SDS011;42408;53.238;5.686;2023-05-03T07:47:26;6.07;;;2.22;;
56511;SDS011;42408;53.238;5.686;2023-05-03T07:49:52;4.53;;;1.93;;
56511;SDS011;42408;53.238;5.686;2023-05-03T07:52:18;3.13;;;2.00;;
56511;SDS011;42408;53.238;5.686;2023-05-03T07:54:44;5.67;;;2.07;;
56511;SDS011;42408;53.238;5.686;2023-05-03T07:57:10;4.60;;;2.00;;
56511;SDS011;42408;53.238;5.686;2023-05-03T07:59:38;4.22;;;2.10;;
56511;SDS011;42408;53.238;5.686;2023-05-03T08:02:04;5.00;;;2.30;;
56511;SDS011;42408;53.238;5.686;2023-05-03T08:04:30;6.50;;;2.77;;
56511;SDS011;42408;53.238;5.686;2023-05-03T08:06:55;5.47;;;2.20;;
56511;SDS011;42408;53.238;5.686;2023-05-03T08:09:24;6.47;;;2.30;;
56511;SDS011;42408;53.238;5.686;2023-05-03T08:11:49;4.43;;;2.30;;
56511;SDS011;42408;53.238;5.686;2023-05-03T08:14:15;3.40;;;2.30;;
56511;SDS011;42408;53.238;5.686;2023-05-03T08:16:41;4.87;;;2.03;;
56511;SDS011;42408;53.238;5.686;2023-05-03T08:19:07;3.20;;;2.03;;
56511;SDS011;42408;53.238;5.686;2023-05-03T08:21:32;5.50;;;2.10;;
56511;SDS011;42408;53.238;5.686;2023-05-03T08:26:26;5.05;;;2.53;;
56511;SDS011;42408;53.238;5.686;2023-05-03T08:28:53;4.80;;;2.88;;
56511;SDS011;42408;53.238;5.686;2023-05-03T08:31:19;4.53;;;2.60;;
56511;SDS011;42408;53.238;5.686;2023-05-03T08:33:45;5.00;;;2.40;;
56511;SDS011;42408;53.238;5.686;2023-05-03T08:36:10;3.77;;;2.40;;
56511;SDS011;42408;53.238;5.686;2023-05-03T08:38:36;3.40;;;2.17;;
56511;SDS011;42408;53.238;5.686;2023-05-03T08:41:09;4.53;;;1.88;;
56511;SDS011;42408;53.238;5.686;2023-05-03T08:46:12;3.97;;;2.10;;
56511;SDS011;42408;53.238;5.686;2023-05-03T08:48:37;5.32;;;2.20;;
56511;SDS011;42408;53.238;5.686;2023-05-03T08:51:03;6.83;;;2.40;;
56511;SDS011;42408;53.238;5.686;2023-05-03T08:53:32;4.80;;;2.28;;
56511;SDS011;42408;53.238;5.686;2023-05-03T08:55:58;3.63;;;2.20;;
56511;SDS011;42408;53.238;5.686;2023-05-03T08:58:23;7.07;;;2.53;;
56511;SDS011;42408;53.238;5.686;2023-05-03T09:00:49;4.37;;;2.50;;
56511;SDS011;42408;53.238;5.686;2023-05-03T09:03:14;5.93;;;2.57;;
56511;SDS011;42408;53.238;5.686;2023-05-03T09:05:40;4.90;;;2.53;;
56511;SDS011;42408;53.238;5.686;2023-05-03T09:08:09;4.85;;;2.33;;
56511;SDS011;42408;53.238;5.686;2023-05-03T09:10:40;5.80;;;2.72;;
56511;SDS011;42408;53.238;5.686;2023-05-03T09:13:07;7.35;;;2.55;;
56511;SDS011;42408;53.238;5.686;2023-05-03T09:15:33;5.32;;;2.60;;
56511;SDS011;42408;53.238;5.686;2023-05-03T09:20:35;6.03;;;2.80;;
56511;SDS011;42408;53.238;5.686;2023-05-03T09:25:46;5.85;;;2.42;;
56511;SDS011;42408;53.238;5.686;2023-05-03T09:28:14;5.35;;;2.83;;
56511;SDS011;42408;53.238;5.686;2023-05-03T09:33:06;6.35;;;2.35;;
56511;SDS011;42408;53.238;5.686;2023-05-03T09:35:33;4.13;;;2.22;;
56511;SDS011;42408;53.238;5.686;2023-05-03T09:37:59;4.80;;;2.38;;
56511;SDS011;42408;53.238;5.686;2023-05-03T09:40:25;6.90;;;2.40;;
56511;SDS011;42408;53.238;5.686;2023-05-03T09:43:11;5.07;;;2.28;;
56511;SDS011;42408;53.238;5.686;2023-05-03T09:45:40;4.43;;;2.00;;
56511;SDS011;42408;53.238;5.686;2023-05-03T09:48:06;5.33;;;2.57;;
56511;SDS011;42408;53.238;5.686;2023-05-03T09:50:32;5.15;;;2.65;;
56511;SDS011;42408;53.238;5.686;2023-05-03T09:53:00;3.67;;;2.00;;
56511;SDS011;42408;53.238;5.686;2023-05-03T09:55:37;4.82;;;2.33;;
56511;SDS011;42408;53.238;5.686;2023-05-03T09:58:04;4.30;;;2.15;;
56511;SDS011;42408;53.238;5.686;2023-05-03T10:00:38;5.07;;;2.38;;
56511;SDS011;42408;53.238;5.686;2023-05-03T10:03:10;5.35;;;2.22;;
56511;SDS011;42408;53.238;5.686;2023-05-03T10:05:39;4.13;;;2.22;;
56511;SDS011;42408;53.238;5.686;2023-05-03T10:08:10;5.28;;;2.33;;
56511;SDS011;42408;53.238;5.686;2023-05-03T10:10:43;6.05;;;2.38;;
56511;SDS011;42408;53.238;5.686;2023-05-03T10:13:12;4.45;;;2.53;;
56511;SDS011;42408;53.238;5.686;2023-05-03T10:15:39;5.07;;;2.25;;
56511;SDS011;42408;53.238;5.686;2023-05-03T10:18:07;4.75;;;2.30;;
56511;SDS011;42408;53.238;5.686;2023-05-03T10:25:29;4.33;;;1.93;;
56511;SDS011;42408;53.238;5.686;2023-05-03T10:28:08;4.85;;;2.38;;
56511;SDS011;42408;53.238;5.686;2023-05-03T10:30:37;4.50;;;2.60;;
56511;SDS011;42408;53.238;5.686;2023-05-03T10:35:39;8.98;;;2.55;;
56511;SDS011;42408;53.238;5.686;2023-05-03T10:38:15;4.28;;;2.75;;
56511;SDS011;42408;53.238;5.686;2023-05-03T10:40:44;4.00;;;2.38;;
56511;SDS011;42408;53.238;5.686;2023-05-03T10:45:58;6.00;;;2.63;;
56511;SDS011;42408;53.238;5.686;2023-05-03T10:48:27;4.93;;;2.60;;
56511;SDS011;42408;53.238;5.686;2023-05-03T10:50:54;8.38;;;2.90;;
56511;SDS011;42408;53.238;5.686;2023-05-03T10:53:33;6.13;;;2.72;;
56511;SDS011;42408;53.238;5.686;2023-05-03T10:56:06;5.38;;;2.53;;
56511;SDS011;42408;53.238;5.686;2023-05-03T10:58:35;4.82;;;2.05;;
56511;SDS011;42408;53.238;5.686;2023-05-03T11:06:04;5.75;;;2.53;;
56511;SDS011;42408;53.238;5.686;2023-05-03T11:08:30;5.63;;;2.57;;
56511;SDS011;42408;53.238;5.686;2023-05-03T11:11:01;7.65;;;2.90;;
56511;SDS011;42408;53.238;5.686;2023-05-03T11:13:34;6.10;;;3.00;;
56511;SDS011;42408;53.238;5.686;2023-05-03T11:16:02;6.47;;;2.83;;
56511;SDS011;42408;53.238;5.686;2023-05-03T11:18:31;5.00;;;2.60;;
56511;SDS011;42408;53.238;5.686;2023-05-03T11:20:57;6.88;;;3.30;;
56511;SDS011;42408;53.238;5.686;2023-05-03T11:23:24;5.63;;;2.57;;
56511;SDS011;42408;53.238;5.686;2023-05-03T11:25:51;6.28;;;2.40;;
56511;SDS011;42408;53.238;5.686;2023-05-03T11:28:17;2.77;;;2.07;;
56511;SDS011;42408;53.238;5.686;2023-05-03T11:30:42;7.03;;;2.50;;
56511;SDS011;42408;53.238;5.686;2023-05-03T11:33:10;7.45;;;2.65;;
56511;SDS011;42408;53.238;5.686;2023-05-03T11:35:36;5.90;;;2.67;;
56511;SDS011;42408;53.238;5.686;2023-05-03T11:38:02;5.57;;;2.45;;
56511;SDS011;42408;53.238;5.686;2023-05-03T11:40:28;5.60;;;2.70;;
56511;SDS011;42408;53.238;5.686;2023-05-03T11:42:55;7.37;;;2.77;;
56511;SDS011;42408;53.238;5.686;2023-05-03T11:45:23;6.53;;;2.70;;
56511;SDS011;42408;53.238;5.686;2023-05-03T11:47:50;4.57;;;2.70;;
56511;SDS011;42408;53.238;5.686;2023-05-03T11:50:17;4.78;;;2.47;;
56511;SDS011;42408;53.238;5.686;2023-05-03T11:55:09;7.53;;;2.42;;
56511;SDS011;42408;53.238;5.686;2023-05-03T12:00:12;7.50;;;2.63;;
56511;SDS011;42408;53.238;5.686;2023-05-03T12:02:41;4.25;;;2.40;;
56511;SDS011;42408;53.238;5.686;2023-05-03T12:05:11;5.00;;;2.83;;
56511;SDS011;42408;53.238;5.686;2023-05-03T12:07:37;5.00;;;2.40;;
56511;SDS011;42408;53.238;5.686;2023-05-03T12:10:13;7.32;;;2.70;;
56511;SDS011;42408;53.238;5.686;2023-05-03T12:12:50;6.18;;;2.72;;
56511;SDS011;42408;53.238;5.686;2023-05-03T12:15:25;5.57;;;2.53;;
56511;SDS011;42408;53.238;5.686;2023-05-03T12:17:54;5.85;;;2.65;;
56511;SDS011;42408;53.238;5.686;2023-05-03T12:20:22;5.15;;;2.88;;
56511;SDS011;42408;53.238;5.686;2023-05-03T12:25:15;5.32;;;2.58;;
56511;SDS011;42408;53.238;5.686;2023-05-03T12:27:40;7.20;;;2.57;;
56511;SDS011;42408;53.238;5.686;2023-05-03T12:30:06;5.33;;;2.40;;
56511;SDS011;42408;53.238;5.686;2023-05-03T12:32:35;5.32;;;2.92;;
56511;SDS011;42408;53.238;5.686;2023-05-03T12:35:05;4.28;;;2.50;;
56511;SDS011;42408;53.238;5.686;2023-05-03T12:37:33;5.32;;;2.45;;
56511;SDS011;42408;53.238;5.686;2023-05-03T12:39:59;5.93;;;2.58;;
56511;SDS011;42408;53.238;5.686;2023-05-03T12:42:26;6.38;;;2.85;;
56511;SDS011;42408;53.238;5.686;2023-05-03T12:44:55;4.93;;;2.45;;
56511;SDS011;42408;53.238;5.686;2023-05-03T12:47:21;5.25;;;2.15;;
56511;SDS011;42408;53.238;5.686;2023-05-03T12:49:47;3.87;;;2.73;;
56511;SDS011;42408;53.238;5.686;2023-05-03T12:52:13;5.83;;;2.87;;
56511;SDS011;42408;53.238;5.686;2023-05-03T12:54:38;4.40;;;2.57;;
56511;SDS011;42408;53.238;5.686;2023-05-03T12:57:05;4.07;;;2.40;;
56511;SDS011;42408;53.238;5.686;2023-05-03T12:59:34;6.72;;;2.38;;
56511;SDS011;42408;53.238;5.686;2023-05-03T13:02:00;4.00;;;1.92;;
56511;SDS011;42408;53.238;5.686;2023-05-03T13:04:26;5.60;;;2.53;;
56511;SDS011;42408;53.238;5.686;2023-05-03T13:06:52;6.63;;;2.30;;
56511;SDS011;42408;53.238;5.686;2023-05-03T13:09:18;4.10;;;2.40;;
56511;SDS011;42408;53.238;5.686;2023-05-03T13:11:44;7.00;;;2.87;;
56511;SDS011;42408;53.238;5.686;2023-05-03T13:14:14;6.85;;;2.63;;
56511;SDS011;42408;53.238;5.686;2023-05-03T13:16:43;4.75;;;2.35;;
56511;SDS011;42408;53.238;5.686;2023-05-03T13:19:13;5.20;;;2.42;;
56511;SDS011;42408;53.238;5.686;2023-05-03T13:21:39;4.95;;;2.03;;
56511;SDS011;42408;53.238;5.686;2023-05-03T13:24:05;4.20;;;2.45;;
56511;SDS011;42408;53.238;5.686;2023-05-03T13:26:31;4.15;;;2.13;;
56511;SDS011;42408;53.238;5.686;2023-05-03T13:28:58;4.85;;;2.15;;
56511;SDS011;42408;53.238;5.686;2023-05-03T13:31:24;4.15;;;2.20;;
56511;SDS011;42408;53.238;5.686;2023-05-03T13:33:51;5.13;;;2.33;;
56511;SDS011;42408;53.238;5.686;2023-05-03T13:36:21;3.55;;;2.20;;
56511;SDS011;42408;53.238;5.686;2023-05-03T13:38:47;5.82;;;2.47;;
56511;SDS011;42408;53.238;5.686;2023-05-03T13:43:40;5.00;;;2.17;;
56511;SDS011;42408;53.238;5.686;2023-05-03T13:46:06;6.00;;;2.97;;
56511;SDS011;42408;53.238;5.686;2023-05-03T13:48:33;8.10;;;2.55;;
56511;SDS011;42408;53.238;5.686;2023-05-03T13:50:58;4.70;;;2.20;;
56511;SDS011;42408;53.238;5.686;2023-05-03T13:53:24;4.63;;;2.13;;
56511;SDS011;42408;53.238;5.686;2023-05-03T13:55:51;5.22;;;2.42;;
56511;SDS011;42408;53.238;5.686;2023-05-03T13:58:16;5.37;;;2.20;;
56511;SDS011;42408;53.238;5.686;2023-05-03T14:00:43;5.43;;;2.53;;
56511;SDS011;42408;53.238;5.686;2023-05-03T14:03:09;8.07;;;2.60;;
56511;SDS011;42408;53.238;5.686;2023-05-03T14:05:35;5.05;;;2.55;;
56511;SDS011;42408;53.238;5.686;2023-05-03T14:08:01;3.83;;;2.20;;
56511;SDS011;42408;53.238;5.686;2023-05-03T14:10:27;4.27;;;2.43;;
56511;SDS011;42408;53.238;5.686;2023-05-03T14:12:53;6.03;;;2.67;;
56511;SDS011;42408;53.238;5.686;2023-05-03T14:15:18;4.13;;;2.47;;
56511;SDS011;42408;53.238;5.686;2023-05-03T14:17:47;5.03;;;2.63;;
56511;SDS011;42408;53.238;5.686;2023-05-03T14:20:12;6.15;;;2.55;;
56511;SDS011;42408;53.238;5.686;2023-05-03T14:22:41;5.45;;;2.92;;
56511;SDS011;42408;53.238;5.686;2023-05-03T14:25:07;6.25;;;2.55;;
56511;SDS011;42408;53.238;5.686;2023-05-03T14:27:33;4.33;;;2.40;;
56511;SDS011;42408;53.238;5.686;2023-05-03T14:29:59;5.23;;;2.60;;
56511;SDS011;42408;53.238;5.686;2023-05-03T14:32:24;5.30;;;3.00;;
56511;SDS011;42408;53.238;5.686;2023-05-03T14:34:51;5.85;;;2.40;;
56511;SDS011;42408;53.238;5.686;2023-05-03T14:37:16;8.00;;;2.93;;
56511;SDS011;42408;53.238;5.686;2023-05-03T14:39:42;7.33;;;2.83;;
56511;SDS011;42408;53.238;5.686;2023-05-03T14:42:09;4.53;;;2.47;;
56511;SDS011;42408;53.238;5.686;2023-05-03T14:44:35;5.50;;;2.60;;
56511;SDS011;42408;53.238;5.686;2023-05-03T14:47:01;6.38;;;2.60;;
56511;SDS011;42408;53.238;5.686;2023-05-03T14:49:28;4.65;;;2.78;;
56511;SDS011;42408;53.238;5.686;2023-05-03T14:51:54;4.75;;;2.67;;
56511;SDS011;42408;53.238;5.686;2023-05-03T14:54:21;8.10;;;3.08;;
56511;SDS011;42408;53.238;5.686;2023-05-03T14:56:47;6.33;;;2.93;;
56511;SDS011;42408;53.238;5.686;2023-05-03T14:59:13;3.85;;;2.65;;
56511;SDS011;42408;53.238;5.686;2023-05-03T15:01:39;4.73;;;2.40;;
56511;SDS011;42408;53.238;5.686;2023-05-03T15:04:05;5.00;;;2.80;;
56511;SDS011;42408;53.238;5.686;2023-05-03T15:06:34;5.25;;;2.97;;
56511;SDS011;42408;53.238;5.686;2023-05-03T15:09:03;5.00;;;2.03;;
56511;SDS011;42408;53.238;5.686;2023-05-03T15:11:29;5.20;;;2.80;;
56511;SDS011;42408;53.238;5.686;2023-05-03T15:13:55;5.57;;;2.40;;
56511;SDS011;42408;53.238;5.686;2023-05-03T15:16:21;6.57;;;3.07;;
56511;SDS011;42408;53.238;5.686;2023-05-03T15:18:47;5.97;;;3.00;;
56511;SDS011;42408;53.238;5.686;2023-05-03T15:21:13;5.57;;;2.97;;
56511;SDS011;42408;53.238;5.686;2023-05-03T15:23:40;7.07;;;3.00;;
56511;SDS011;42408;53.238;5.686;2023-05-03T15:26:06;4.88;;;2.35;;
56511;SDS011;42408;53.238;5.686;2023-05-03T15:28:32;5.40;;;3.03;;
56511;SDS011;42408;53.238;5.686;2023-05-03T15:30:58;7.67;;;2.87;;
56511;SDS011;42408;53.238;5.686;2023-05-03T15:33:23;6.77;;;2.50;;
56511;SDS011;42408;53.238;5.686;2023-05-03T15:35:49;5.57;;;2.87;;
56511;SDS011;42408;53.238;5.686;2023-05-03T15:38:15;5.50;;;2.57;;